Terminal Aerodrome Forecast
Issued by NWS

Home | Current Version | Previous Version | Text Only | Print | Product List | Glossary On
Versions: 1 2 3 4 5 6 7 8 9 10 11 12 13
972
FTUS45 KTFX 250520
TAFHLN
TAF
KHLN 250520Z 2506/2606 27011G24KT P6SM BKN070 OVC080
     FM250800 27009KT P6SM VCSH BKN060
     FM251500 30008KT P6SM -SHRA BKN040=

USA.gov is the U.S. government's official web portal to all federal, state and local government web resources and services.